x

Isle Of Shoals, Nh (iosn3) Weather Station

12:00 - Wed 28th Sep 2016 All times are EDT. -4 hours from GMT.

  • Wind
    14mph, 15mph gusts
  • Luft Temp 61°f
  • Sea Pressure 1017mb
  • Isle Of Shoals, Nh
  • Isle Of Shoals, Nh

More Historic Weather Station data

Upgrade to MSW Pro to gain access to the past 30 days of data for over 8000 Wavebouys and Weather Stations around the globe.

Join Pro

Comparision Forecast

View Surf forecast
   
Mi 09/28 12:00 14 15 mph 1017mb 61f
Di 09/27 11:00 11 13 mph 1016.4mb 61f
10:00 13 15 mph 1015.6mb 61f
9:00 11 13 mph 1015mb 62f
8:00 11 13 mph 1014.3mb 62f
7:00 11 13 mph 1013.2mb 62f
6:00 10
mph
1012.8mb 62f
5:00 10
mph
1012.5mb 63f
4:00 7
mph
1012.1mb 64f
3:00 2
mph
1011.9mb 65f
2:00 2
mph
1011.6mb 64f
1:00 6 7 mph 1011.7mb 63f
12:00 3
mph
1012mb 61f
11:00 1 2 mph 1012.1mb 60f
10:00 3
mph
1012mb 60f
9:00 6 7 mph 1012.3mb 59f
8:00 9 10 mph 1012.6mb 59f
7:00 10 11 mph 1012.6mb 59f
6:00 18 21 mph 1012.5mb 59f
5:00 20 22 mph 1012.5mb 62f
4:00 23 26 mph 1013.1mb 62f
3:00 23 24 mph 1013.6mb 61f
2:00 23 25 mph 1014.5mb 61f
1:00 24 26 mph 1015.1mb 61f
12:00 23 25 mph 1016mb 61f
Mo 09/26 11:00 26 29 mph 1016.5mb 60f
10:00 24 26 mph 1016.9mb 61f
9:00 23 25 mph 1017.2mb 61f
8:00 24 25 mph 1017.6mb 60f
7:00 22 24 mph 1018.1mb 58f
6:00 21 22 mph 1018.3mb 58f
5:00 20 21 mph 1018.7mb 58f
4:00 17 18 mph 1019.2mb 57f
3:00 16 18 mph 1020.1mb 57f
2:00 9
mph
1020.5mb 57f
1:00 10 11 mph 1021.2mb 57f
12:00 6 7 mph 1022.1mb 57f
11:00 5 6 mph 1022.5mb 56f
10:00 7
mph
1022.9mb 53f
9:00 8 9 mph 1022.8mb 52f
8:00 10 11 mph 1023mb 50f
7:00 11 13 mph 1022.8mb 48f
6:00 13 14 mph 1022.2mb 48f
5:00 10 11 mph 1021.8mb 50f
4:00 9 10 mph 1021.5mb 51f
3:00 10 11 mph 1022mb 52f
2:00 11 13 mph 1022.4mb 53f
1:00 10 13 mph 1022.2mb 54f
12:00 11 14 mph 1022.1mb 55f
So 09/25 11:00 10 11 mph 1021.9mb 55f
10:00 13 14 mph 1021.8mb 56f
9:00 16 17 mph 1021mb 58f
8:00 16 17 mph 1020.4mb 58f
7:00 21 24 mph 1019.2mb 60f
6:00 21 23 mph 1018.4mb 61f
5:00 20 21 mph 1017.8mb 61f
4:00 16 18 mph 1017.6mb 61f
3:00 20 22 mph 1017.6mb 60f
2:00 17 21 mph 1018mb 59f
1:00 15 17 mph 1018.8mb 58f
12:00 17 20 mph 1018.6mb 56f
11:00 16 18 mph 1019.1mb 54f
10:00 11 13 mph 1019.4mb 53f
9:00 20 21 mph 1019.3mb 50f
8:00 18 20 mph 1019.6mb 49f
7:00 20 21 mph 1019.4mb 49f
6:00 15 17 mph 1019.1mb 51f
5:00 17 18 mph 1018.9mb 52f
4:00 21 23 mph 1018.7mb 53f
3:00 20 22 mph 1018.6mb 53f
2:00 17 20 mph 1018.6mb 53f
1:00 20 22 mph 1018.2mb 55f
12:00 22 25 mph 1017.9mb 56f
Sa 09/24 11:00 22 24 mph 1017.7mb 57f
10:00 17 20 mph 1018.1mb 58f
9:00 16 18 mph 1018mb 59f
8:00 13 14 mph 1017.9mb 60f
7:00 20 22 mph 1017.8mb 61f
6:00 23 25 mph 1017.1mb 62f
5:00 2 5 mph 1017mb 62f
4:00 7 8 mph 1017.3mb 60f
3:00 8 9 mph 1017.5mb 60f
2:00 5 6 mph 1017.8mb 60f
1:00 7
mph
1018.5mb 59f
12:00 8 11 mph 1019.1mb 58f
11:00 15 16 mph 1019.5mb 57f
10:00 20 22 mph 1019.6mb 56f
9:00 18 21 mph 1019.3mb 56f
8:00 15 16 mph 1019.7mb 55f
7:00 11 13 mph 1019.3mb 56f
6:00 11 14 mph 1019.1mb 56f